createdAt,value
2019-01-10T00:01:30.652Z,4.83
2019-01-10T00:04:00.793Z,4.33
2019-01-10T00:06:30.831Z,4.13
2019-01-10T00:09:01.005Z,4.07
2019-01-10T00:11:31.136Z,3.60
2019-01-10T00:14:01.408Z,4.27
2019-01-10T00:16:31.664Z,5.20
2019-01-10T00:19:01.814Z,4.27
2019-01-10T00:21:31.938Z,4.30
2019-01-10T00:24:05.070Z,4.53
2019-01-10T00:26:35.292Z,4.50
2019-01-10T00:29:05.612Z,4.00
2019-01-10T00:31:35.680Z,4.40
2019-01-10T00:34:05.918Z,4.20
2019-01-10T00:36:36.708Z,3.73
2019-01-10T00:39:08.168Z,4.90
2019-01-10T00:41:38.192Z,3.83
2019-01-10T00:44:08.347Z,4.10
2019-01-10T00:46:38.534Z,3.57
2019-01-10T00:49:09.138Z,3.87
2019-01-10T00:51:39.418Z,3.80
2019-01-10T00:54:12.061Z,4.00
2019-01-10T00:56:42.113Z,3.97
2019-01-10T00:59:17.594Z,3.57
2019-01-10T01:01:47.663Z,3.63
2019-01-10T01:04:20.291Z,3.83
2019-01-10T01:06:50.624Z,3.67
2019-01-10T01:09:20.845Z,3.73
2019-01-10T01:11:52.490Z,3.83
2019-01-10T01:14:23.758Z,3.43
2019-01-10T01:16:53.986Z,3.90
2019-01-10T01:19:24.248Z,3.40
2019-01-10T01:21:54.897Z,3.63
2019-01-10T01:24:25.058Z,3.10
2019-01-10T01:26:55.148Z,3.47
2019-01-10T01:29:25.195Z,3.33
2019-01-10T01:31:55.382Z,3.00
2019-01-10T01:34:25.519Z,3.37
2019-01-10T01:36:55.558Z,3.23
2019-01-10T01:39:25.775Z,3.00
2019-01-10T01:41:55.877Z,3.23
2019-01-10T01:44:26.198Z,3.43
2019-01-10T01:46:56.397Z,3.07
2019-01-10T01:49:26.535Z,3.20
2019-01-10T01:51:56.751Z,2.93
2019-01-10T01:54:26.998Z,3.00
2019-01-10T01:56:57.058Z,3.50
2019-01-10T01:59:27.290Z,2.90
2019-01-10T02:01:59.191Z,3.00
2019-01-10T02:04:29.946Z,3.20
2019-01-10T02:07:00.552Z,3.23
2019-01-10T02:09:30.817Z,3.10
2019-01-10T02:12:00.894Z,3.20
2019-01-10T02:14:30.967Z,3.20
2019-01-10T02:17:01.021Z,3.30
2019-01-10T02:19:31.214Z,2.97
2019-01-10T02:22:02.556Z,2.90
2019-01-10T02:24:32.670Z,3.20
2019-01-10T02:27:04.342Z,3.47
2019-01-10T02:29:34.676Z,3.00
2019-01-10T02:32:04.938Z,2.63
2019-01-10T02:34:35.044Z,3.23
2019-01-10T02:37:05.331Z,3.17
2019-01-10T02:39:35.364Z,2.67
2019-01-10T02:42:05.615Z,3.30
2019-01-10T02:44:35.729Z,3.80
2019-01-10T02:47:05.951Z,4.77
2019-01-10T02:49:37.506Z,4.53
2019-01-10T02:52:07.550Z,4.30
2019-01-10T02:54:37.702Z,3.57
2019-01-10T02:57:07.917Z,4.30
2019-01-10T02:59:37.987Z,4.13
2019-01-10T03:02:08.678Z,3.53
2019-01-10T03:04:38.811Z,3.43
2019-01-10T03:07:09.127Z,3.37
2019-01-10T03:09:41.714Z,3.57
2019-01-10T03:12:11.812Z,2.83
2019-01-10T03:14:43.618Z,2.90
2019-01-10T03:17:13.649Z,3.37
2019-01-10T03:19:43.810Z,3.17
2019-01-10T03:22:13.906Z,3.00
2019-01-10T03:24:44.048Z,3.10
2019-01-10T03:27:14.208Z,2.87
2019-01-10T03:29:44.277Z,3.20
2019-01-10T03:32:14.459Z,2.90
2019-01-10T03:34:46.740Z,3.23
2019-01-10T03:37:16.858Z,2.90
2019-01-10T03:39:48.169Z,2.97
2019-01-10T03:42:18.795Z,3.00
2019-01-10T03:44:48.861Z,3.23
2019-01-10T03:47:18.985Z,3.40
2019-01-10T03:49:49.763Z,3.17
2019-01-10T03:52:20.364Z,3.07
2019-01-10T03:54:50.436Z,3.30
2019-01-10T03:57:20.476Z,3.00
2019-01-10T03:59:52.716Z,3.20
2019-01-10T04:02:22.346Z,4.47
2019-01-10T04:04:52.412Z,4.10
2019-01-10T04:07:22.431Z,4.50
2019-01-10T04:09:52.481Z,3.70
2019-01-10T04:12:22.686Z,4.40
2019-01-10T04:14:52.737Z,3.63
2019-01-10T04:17:22.792Z,4.53
2019-01-10T04:19:55.042Z,4.00
2019-01-10T04:22:24.788Z,3.13
2019-01-10T04:24:54.927Z,3.03
2019-01-10T04:27:24.975Z,2.83
2019-01-10T04:29:55.033Z,3.07
2019-01-10T04:32:27.369Z,4.50
2019-01-10T04:34:57.460Z,4.10
2019-01-10T04:37:27.587Z,3.53
2019-01-10T04:39:58.385Z,3.30
2019-01-10T04:42:28.398Z,2.90
2019-01-10T04:44:58.651Z,3.63
2019-01-10T04:47:28.762Z,3.40
2019-01-10T04:49:58.894Z,3.20
2019-01-10T04:52:28.905Z,3.30
2019-01-10T04:54:59.078Z,3.00
2019-01-10T04:57:29.172Z,3.30
2019-01-10T04:59:59.234Z,3.13
2019-01-10T05:02:29.408Z,3.30
2019-01-10T05:05:01.787Z,3.23
2019-01-10T05:07:31.705Z,2.90
2019-01-10T05:10:02.036Z,3.10
2019-01-10T05:12:32.146Z,3.37
2019-01-10T05:15:02.411Z,3.23
2019-01-10T05:17:32.463Z,2.83
2019-01-10T05:20:02.616Z,3.33
2019-01-10T05:22:32.884Z,3.10
2019-01-10T05:25:03.281Z,3.30
2019-01-10T05:27:33.384Z,3.07
2019-01-10T05:30:03.553Z,3.27
2019-01-10T05:32:33.854Z,3.30
2019-01-10T05:35:03.910Z,3.03
2019-01-10T05:37:34.067Z,3.13
2019-01-10T05:40:04.782Z,3.10
2019-01-10T05:42:34.893Z,4.20
2019-01-10T05:45:05.987Z,4.50
2019-01-10T05:47:35.998Z,4.53
2019-01-10T05:50:07.306Z,4.13
2019-01-10T05:52:38.463Z,3.93
2019-01-10T05:55:11.057Z,4.10
2019-01-10T05:57:41.177Z,4.40
2019-01-10T06:00:19.146Z,4.40
2019-01-10T06:02:49.396Z,4.27
2019-01-10T06:05:19.961Z,4.07
2019-01-10T06:07:50.180Z,4.10
2019-01-10T06:10:22.777Z,3.90
2019-01-10T06:12:53.004Z,4.10
2019-01-10T06:15:23.255Z,4.20
2019-01-10T06:17:53.281Z,4.77
2019-01-10T06:20:24.129Z,3.97
2019-01-10T06:22:54.216Z,5.03
2019-01-10T06:25:24.582Z,4.43
2019-01-10T06:27:54.783Z,5.20
2019-01-10T06:30:25.300Z,4.70
2019-01-10T06:32:55.357Z,4.30
2019-01-10T06:35:25.418Z,5.80
2019-01-10T06:37:55.514Z,5.23
2019-01-10T06:40:25.692Z,4.47
2019-01-10T06:42:55.793Z,5.00
2019-01-10T06:45:25.948Z,5.73
2019-01-10T06:47:55.993Z,4.60
2019-01-10T06:50:26.038Z,4.27
2019-01-10T06:52:56.105Z,5.03
2019-01-10T06:55:26.345Z,4.00
2019-01-10T06:57:56.404Z,3.67
2019-01-10T07:00:26.695Z,7.50
2019-01-10T07:02:56.911Z,4.63
2019-01-10T07:05:28.641Z,4.30
2019-01-10T07:07:58.788Z,3.47
2019-01-10T07:10:30.166Z,4.30
2019-01-10T07:13:02.086Z,4.30
2019-01-10T07:15:32.440Z,4.30
2019-01-10T07:18:02.518Z,4.07
2019-01-10T07:20:38.891Z,4.60
2019-01-10T07:23:09.325Z,5.00
2019-01-10T07:25:41.242Z,4.93
2019-01-10T07:28:24.994Z,5.50
2019-01-10T07:30:57.302Z,4.97
2019-01-10T07:33:27.365Z,4.83
2019-01-10T07:35:59.000Z,4.33
2019-01-10T07:38:30.768Z,4.97
2019-01-10T07:41:00.993Z,5.20
2019-01-10T07:43:31.323Z,4.87
2019-01-10T07:46:06.652Z,5.20
2019-01-10T07:48:36.688Z,4.83
2019-01-10T07:51:06.745Z,4.40
2019-01-10T07:53:36.818Z,4.67
2019-01-10T07:56:06.984Z,5.00
2019-01-10T07:58:37.021Z,4.20
2019-01-10T08:01:07.400Z,4.43
2019-01-10T08:03:37.457Z,4.87
2019-01-10T08:06:07.634Z,5.40
2019-01-10T08:08:37.665Z,5.57
2019-01-10T08:11:07.701Z,6.30
2019-01-10T08:13:38.075Z,5.90
2019-01-10T08:16:08.417Z,5.60
2019-01-10T08:18:38.614Z,6.10
2019-01-10T08:21:08.811Z,5.40
2019-01-10T08:23:39.002Z,5.70
2019-01-10T08:26:09.159Z,6.20
2019-01-10T08:28:39.270Z,5.97
2019-01-10T08:31:09.521Z,6.30
2019-01-10T08:33:39.774Z,6.53
2019-01-10T08:36:09.921Z,6.10
2019-01-10T08:38:40.184Z,6.00
2019-01-10T08:41:10.311Z,5.80
2019-01-10T08:43:40.453Z,5.50
2019-01-10T08:46:12.306Z,5.17
2019-01-10T08:48:42.507Z,5.83
2019-01-10T08:51:12.687Z,5.57
2019-01-10T08:53:42.787Z,4.40
2019-01-10T08:56:12.933Z,5.50
2019-01-10T08:58:49.606Z,6.33
2019-01-10T09:01:38.718Z,6.40
2019-01-10T09:04:08.935Z,5.77
2019-01-10T09:06:39.083Z,5.60
2019-01-10T09:09:09.944Z,5.43
2019-01-10T09:11:40.023Z,4.70
2019-01-10T09:14:10.314Z,5.30
2019-01-10T09:16:40.423Z,5.40
2019-01-10T09:19:10.589Z,5.00
2019-01-10T09:21:43.790Z,5.00
2019-01-10T09:24:13.977Z,5.63
2019-01-10T09:26:44.168Z,5.23
2019-01-10T09:29:14.253Z,5.57
2019-01-10T09:31:44.604Z,5.10
2019-01-10T09:34:14.778Z,5.43
2019-01-10T09:36:44.887Z,4.90
2019-01-10T09:39:15.158Z,5.00
2019-01-10T09:41:48.338Z,5.00
2019-01-10T09:44:18.522Z,4.40
2019-01-10T09:46:48.654Z,4.33
2019-01-10T09:49:18.847Z,4.50
2019-01-10T09:51:49.115Z,4.67
2019-01-10T09:54:19.274Z,4.50
2019-01-10T09:56:49.505Z,5.77
2019-01-10T09:59:19.783Z,4.70
2019-01-10T10:01:49.876Z,4.30
2019-01-10T10:04:22.030Z,4.87
2019-01-10T10:06:52.380Z,4.20
2019-01-10T10:09:22.693Z,4.33
2019-01-10T10:11:52.775Z,4.33
2019-01-10T10:14:23.125Z,5.20
2019-01-10T10:16:53.197Z,4.63
2019-01-10T10:19:23.242Z,5.57
2019-01-10T10:21:53.462Z,5.73
2019-01-10T10:24:23.605Z,4.73
2019-01-10T10:26:53.865Z,5.93
2019-01-10T10:29:23.929Z,5.60
2019-01-10T10:31:54.239Z,5.80
2019-01-10T10:34:24.473Z,5.43
2019-01-10T10:36:54.601Z,5.10
2019-01-10T10:39:24.847Z,5.33
2019-01-10T10:41:55.028Z,6.17
2019-01-10T10:44:25.143Z,6.40
2019-01-10T10:47:14.341Z,6.10
2019-01-10T10:49:44.362Z,6.83
2019-01-10T10:52:16.550Z,6.23
2019-01-10T10:54:47.035Z,6.57
2019-01-10T10:57:36.173Z,5.93
2019-01-10T11:00:09.634Z,4.93
2019-01-10T11:02:41.330Z,5.53
2019-01-10T11:05:23.338Z,5.80
2019-01-10T11:07:53.674Z,5.73
2019-01-10T11:10:23.892Z,5.13
2019-01-10T11:12:53.974Z,5.57
2019-01-10T11:15:24.285Z,6.00
2019-01-10T11:17:54.424Z,5.13
2019-01-10T11:20:24.789Z,4.60
2019-01-10T11:22:55.422Z,4.80
2019-01-10T11:25:26.901Z,6.70
2019-01-10T11:27:57.725Z,6.57
2019-01-10T11:30:27.954Z,7.67
2019-01-10T11:32:58.043Z,6.90
2019-01-10T11:35:28.160Z,6.33
2019-01-10T11:37:58.298Z,5.03
2019-01-10T11:40:28.440Z,5.10
2019-01-10T11:42:59.150Z,4.47
2019-01-10T11:45:29.582Z,4.97
2019-01-10T11:47:59.944Z,4.77
2019-01-10T11:50:30.223Z,5.07
2019-01-10T11:53:00.374Z,5.13
2019-01-10T11:55:30.478Z,5.30
2019-01-10T11:58:00.550Z,4.50
2019-01-10T12:00:34.805Z,5.00
2019-01-10T12:03:06.940Z,4.73
2019-01-10T12:05:47.267Z,4.93
2019-01-10T12:08:11.182Z,5.43
2019-01-10T12:10:41.318Z,5.60
2019-01-10T12:13:11.378Z,5.20
2019-01-10T12:15:42.806Z,4.13
2019-01-10T12:18:12.881Z,4.63
2019-01-10T12:20:42.939Z,4.10
2019-01-10T12:23:13.102Z,4.27
2019-01-10T12:25:44.831Z,4.57
2019-01-10T12:28:15.047Z,4.57
2019-01-10T12:30:45.271Z,4.10
2019-01-10T12:33:15.508Z,3.70
2019-01-10T12:35:45.632Z,4.60
2019-01-10T12:38:15.749Z,3.80
2019-01-10T12:40:45.879Z,3.90
2019-01-10T12:43:16.052Z,4.10
2019-01-10T12:45:46.279Z,4.13
2019-01-10T12:48:16.513Z,5.00
2019-01-10T12:50:46.643Z,5.03
2019-01-10T12:53:16.878Z,4.80
2019-01-10T12:55:47.005Z,4.03
2019-01-10T12:58:17.145Z,4.30
2019-01-10T13:00:47.230Z,4.40
2019-01-10T13:03:17.288Z,4.10
2019-01-10T13:05:47.503Z,4.27
2019-01-10T13:08:17.756Z,4.43
2019-01-10T13:10:47.857Z,4.77
2019-01-10T13:13:18.289Z,4.13
2019-01-10T13:15:48.452Z,4.37
2019-01-10T13:18:18.611Z,5.00
2019-01-10T13:20:48.664Z,4.33
2019-01-10T13:23:18.986Z,4.70
2019-01-10T13:25:49.163Z,4.60
2019-01-10T13:28:19.381Z,4.30
2019-01-10T13:30:49.641Z,4.10
2019-01-10T13:33:19.763Z,4.20
2019-01-10T13:35:49.950Z,4.90
2019-01-10T13:38:20.113Z,4.20
2019-01-10T13:40:50.418Z,4.40
2019-01-10T13:43:20.707Z,5.07
2019-01-10T13:45:50.842Z,4.47
2019-01-10T13:48:20.986Z,4.10
2019-01-10T13:50:51.218Z,3.50
2019-01-10T13:53:21.336Z,3.30
2019-01-10T13:55:52.383Z,3.63
2019-01-10T13:58:22.742Z,3.43
2019-01-10T14:00:52.976Z,4.27
2019-01-10T14:03:23.130Z,3.50
2019-01-10T14:05:53.249Z,3.63
2019-01-10T14:08:23.615Z,3.80
2019-01-10T14:10:53.709Z,3.60
2019-01-10T14:13:23.886Z,3.13
2019-01-10T14:15:54.206Z,3.40
2019-01-10T14:18:24.262Z,3.57
2019-01-10T14:20:54.541Z,3.47
2019-01-10T14:23:24.738Z,3.77
2019-01-10T14:25:54.775Z,3.40
2019-01-10T14:28:25.049Z,3.47
2019-01-10T14:30:55.528Z,3.40
2019-01-10T14:33:25.743Z,3.63
2019-01-10T14:35:55.931Z,3.87
2019-01-10T14:38:29.728Z,5.00
2019-01-10T14:41:00.140Z,4.93
2019-01-10T14:43:30.237Z,4.77
2019-01-10T14:46:00.376Z,4.03
2019-01-10T14:48:30.503Z,4.43
2019-01-10T14:51:00.763Z,3.83
2019-01-10T14:53:30.987Z,3.70
2019-01-10T14:56:04.078Z,4.07
2019-01-10T14:58:34.396Z,3.70
2019-01-10T15:01:04.629Z,3.23
2019-01-10T15:03:34.696Z,3.53
2019-01-10T15:06:05.546Z,3.30
2019-01-10T15:08:36.046Z,3.13
2019-01-10T15:11:06.110Z,3.80
2019-01-10T15:13:36.552Z,4.00
2019-01-10T15:16:06.944Z,4.13
2019-01-10T15:18:37.129Z,3.50
2019-01-10T15:21:07.358Z,3.60
2019-01-10T15:23:37.471Z,4.00
2019-01-10T15:26:07.611Z,3.93
2019-01-10T15:28:37.695Z,3.80
2019-01-10T15:31:07.822Z,3.87
2019-01-10T15:33:38.261Z,3.90
2019-01-10T15:36:08.382Z,3.70
2019-01-10T15:38:38.627Z,3.97
2019-01-10T15:41:08.930Z,3.67
2019-01-10T15:43:39.188Z,3.60
2019-01-10T15:46:09.321Z,4.20
2019-01-10T15:48:41.052Z,4.00
2019-01-10T15:51:11.385Z,3.90
2019-01-10T15:53:43.489Z,4.20
2019-01-10T15:56:13.788Z,4.93
2019-01-10T15:58:43.967Z,4.60
2019-01-10T16:01:14.057Z,4.40
2019-01-10T16:03:44.522Z,4.67
2019-01-10T16:06:14.613Z,4.57
2019-01-10T16:08:44.694Z,4.27
2019-01-10T16:11:14.917Z,5.20
2019-01-10T16:13:45.197Z,4.93
2019-01-10T16:16:15.531Z,5.30
2019-01-10T16:18:45.667Z,5.80
2019-01-10T16:21:15.697Z,5.17
2019-01-10T16:23:47.522Z,7.50
2019-01-10T16:26:17.616Z,5.87
2019-01-10T16:28:47.899Z,5.47
2019-01-10T16:31:19.733Z,4.90
2019-01-10T16:33:51.670Z,5.77
2019-01-10T16:36:29.571Z,4.57
2019-01-10T16:39:00.648Z,4.97
2019-01-10T16:41:31.339Z,4.90
2019-01-10T16:44:01.813Z,5.90
2019-01-10T16:46:35.498Z,4.37
2019-01-10T16:49:05.985Z,6.30
2019-01-10T16:51:37.911Z,10.40
2019-01-10T16:54:08.737Z,6.27
2019-01-10T16:56:40.678Z,7.67
2019-01-10T16:59:12.471Z,6.43
2019-01-10T17:01:43.570Z,6.77
2019-01-10T17:04:15.460Z,6.50
2019-01-10T17:06:46.120Z,6.90
2019-01-10T17:09:17.951Z,5.23
2019-01-10T17:11:49.861Z,7.33
2019-01-10T17:14:21.711Z,8.40
2019-01-10T17:16:53.593Z,7.67
2019-01-10T17:19:24.771Z,6.97
2019-01-10T17:21:56.553Z,6.30
2019-01-10T17:24:28.307Z,7.63
2019-01-10T17:26:58.408Z,9.27
2019-01-10T17:29:28.561Z,7.70
2019-01-10T17:31:58.597Z,5.73
2019-01-10T17:34:28.848Z,4.73
2019-01-10T17:36:59.124Z,7.27
2019-01-10T17:39:29.268Z,3.27
2019-01-10T17:42:00.999Z,4.53
2019-01-10T17:44:31.248Z,3.60
2019-01-10T17:47:01.451Z,5.50
2019-01-10T17:49:31.701Z,2.73
2019-01-10T17:52:01.910Z,3.30
2019-01-10T17:54:32.134Z,4.40
2019-01-10T17:57:02.289Z,3.47
2019-01-10T17:59:44.268Z,3.60
2019-01-10T18:02:14.452Z,4.83
2019-01-10T18:04:44.760Z,2.90
2019-01-10T18:07:15.026Z,2.60
2019-01-10T18:09:45.417Z,3.70
2019-01-10T18:12:17.305Z,3.53
2019-01-10T18:14:47.464Z,3.43
2019-01-10T18:17:17.527Z,3.43
2019-01-10T18:19:47.667Z,3.90
2019-01-10T18:22:17.832Z,3.70
2019-01-10T18:24:48.150Z,3.43
2019-01-10T18:27:18.687Z,2.80
2019-01-10T18:29:48.906Z,3.50
2019-01-10T18:32:18.982Z,4.37
2019-01-10T18:34:49.522Z,4.10
2019-01-10T18:37:19.651Z,3.00
2019-01-10T18:39:49.764Z,3.00
2019-01-10T18:42:19.781Z,1.80
2019-01-10T18:44:50.047Z,2.77
2019-01-10T18:47:20.125Z,2.00
2019-01-10T18:49:51.087Z,1.70
2019-01-10T18:52:21.435Z,1.70
2019-01-10T18:54:51.510Z,1.60
2019-01-10T18:57:21.678Z,1.50
2019-01-10T18:59:51.921Z,1.30
2019-01-10T19:02:22.172Z,1.30
2019-01-10T19:04:52.264Z,1.40
2019-01-10T19:07:22.706Z,1.50
2019-01-10T19:09:52.807Z,1.50
2019-01-10T19:12:22.918Z,1.77
2019-01-10T19:14:53.078Z,1.40
2019-01-10T19:17:26.181Z,1.43
2019-01-10T19:19:55.257Z,1.37
2019-01-10T19:22:25.298Z,1.47
2019-01-10T19:24:55.513Z,1.80
2019-01-10T19:27:25.536Z,1.80
2019-01-10T19:29:56.054Z,1.50
2019-01-10T19:32:26.132Z,1.30
2019-01-10T19:34:56.559Z,2.37
2019-01-10T19:37:26.774Z,3.20
2019-01-10T19:39:57.043Z,4.40
2019-01-10T19:42:27.290Z,4.67
2019-01-10T19:44:57.391Z,5.43
2019-01-10T19:47:27.742Z,5.70
2019-01-10T19:49:58.617Z,5.40
2019-01-10T19:52:28.953Z,4.90
2019-01-10T19:54:59.130Z,3.97
2019-01-10T19:57:31.957Z,3.90
2019-01-10T20:00:02.109Z,3.33
2019-01-10T20:02:32.302Z,3.73
2019-01-10T20:05:02.597Z,3.60
2019-01-10T20:07:33.062Z,3.67
2019-01-10T20:10:03.382Z,3.20
2019-01-10T20:12:33.788Z,3.57
2019-01-10T20:15:04.784Z,4.13
2019-01-10T20:17:34.877Z,4.23
2019-01-10T20:20:09.984Z,4.00
2019-01-10T20:22:40.305Z,3.90
2019-01-10T20:25:11.272Z,5.00
2019-01-10T20:27:42.665Z,6.53
2019-01-10T20:30:13.958Z,5.80
2019-01-10T20:32:45.935Z,5.83
2019-01-10T20:35:16.119Z,5.93
2019-01-10T20:37:46.340Z,5.67
2019-01-10T20:40:16.700Z,6.97
2019-01-10T20:42:46.732Z,6.40
2019-01-10T20:45:16.828Z,5.67
2019-01-10T20:47:49.506Z,6.23
2019-01-10T20:50:20.198Z,5.33
2019-01-10T20:52:50.280Z,4.90
2019-01-10T20:55:20.593Z,4.87
2019-01-10T20:57:50.708Z,4.97
2019-01-10T21:00:22.174Z,5.00
2019-01-10T21:02:52.303Z,6.87
2019-01-10T21:05:22.432Z,6.23
2019-01-10T21:07:53.372Z,6.03
2019-01-10T21:10:24.130Z,6.23
2019-01-10T21:12:54.227Z,5.93
2019-01-10T21:15:27.591Z,6.47
2019-01-10T21:17:57.698Z,6.40
2019-01-10T21:20:27.997Z,6.53
2019-01-10T21:22:59.562Z,6.23
2019-01-10T21:25:30.065Z,6.17
2019-01-10T21:28:00.899Z,6.20
2019-01-10T21:30:31.061Z,6.37
2019-01-10T21:33:01.324Z,6.17
2019-01-10T21:35:31.545Z,6.97
2019-01-10T21:38:01.646Z,6.03
2019-01-10T21:40:32.570Z,5.63
2019-01-10T21:43:02.589Z,5.90
2019-01-10T21:45:33.015Z,6.00
2019-01-10T21:48:03.714Z,5.83
2019-01-10T21:50:33.829Z,5.17
2019-01-10T21:53:06.172Z,6.00
2019-01-10T21:55:36.299Z,5.53
2019-01-10T21:58:06.349Z,6.23
2019-01-10T22:00:36.642Z,6.73
2019-01-10T22:03:07.058Z,6.60
2019-01-10T22:05:37.164Z,7.90
2019-01-10T22:08:10.466Z,7.00
2019-01-10T22:10:40.905Z,7.50
2019-01-10T22:13:11.016Z,7.33
2019-01-10T22:15:41.229Z,8.17
2019-01-10T22:18:11.319Z,7.77
2019-01-10T22:20:41.532Z,8.27
2019-01-10T22:23:11.609Z,8.50
2019-01-10T22:25:42.566Z,8.23
2019-01-10T22:28:12.861Z,8.87
2019-01-10T22:30:43.055Z,9.47
2019-01-10T22:33:13.129Z,9.37
2019-01-10T22:35:45.132Z,9.93
2019-01-10T22:38:15.219Z,9.97
2019-01-10T22:40:45.519Z,10.13
2019-01-10T22:43:15.613Z,10.93
2019-01-10T22:45:45.975Z,10.43
2019-01-10T22:48:16.186Z,11.47
2019-01-10T22:50:58.083Z,11.50
2019-01-10T22:53:28.194Z,12.00
2019-01-10T22:55:58.339Z,11.80
2019-01-10T22:58:28.482Z,11.90
2019-01-10T23:01:13.446Z,12.17
2019-01-10T23:03:43.952Z,12.03
2019-01-10T23:06:14.054Z,11.83
2019-01-10T23:08:45.696Z,11.50
2019-01-10T23:11:24.243Z,13.03
2019-01-10T23:14:07.237Z,12.97
2019-01-10T23:16:37.969Z,13.30
2019-01-10T23:19:08.496Z,13.17
2019-01-10T23:21:42.653Z,12.70
2019-01-10T23:24:17.516Z,13.87
2019-01-10T23:26:53.568Z,13.70
2019-01-10T23:29:30.950Z,14.33
2019-01-10T23:32:05.791Z,15.43
2019-01-10T23:34:35.835Z,15.43
2019-01-10T23:37:06.114Z,15.23
2019-01-10T23:39:36.357Z,13.83
2019-01-10T23:42:06.400Z,14.63
2019-01-10T23:44:36.480Z,16.50
2019-01-10T23:47:06.685Z,16.43
2019-01-10T23:49:36.794Z,16.70
2019-01-10T23:52:07.366Z,16.27
2019-01-10T23:54:37.415Z,16.47
2019-01-10T23:57:07.630Z,17.23
2019-01-10T23:59:37.668Z,17.87
